Time;durP1;ratioP1;P1;durP2;ratioP2;P2;SDS_P1;SDS_P2;PMS_P1;PMS_P2;Temp;Humidity;BMP_temperature;BMP_pressure;BME280_temperature;BME280_humidity;BME280_pressure;Samples;Min_cycle;Max_cycle;Signal;HPM_P1;HPM_P2
2022/04/19 00:00:48;;;;;;;1.65;1.27;;;15.10;45.40;;;;;;5113512;28;20077;-64
2022/04/19 00:03:15;;;;;;;2.08;1.70;;;15.10;45.40;;;;;;5113910;28;20475;-63
2022/04/19 00:05:41;;;;;;;2.40;1.35;;;15.00;45.50;;;;;;5113479;28;20039;-62
2022/04/19 00:08:08;;;;;;;1.67;1.20;;;15.10;45.50;;;;;;5114762;28;20055;-66
2022/04/19 00:10:35;;;;;;;1.27;0.90;;;15.10;45.60;;;;;;5113424;28;20075;-66
2022/04/19 00:13:05;;;;;;;1.48;1.20;;;15.00;45.50;;;;;;5114696;28;20158;-62
2022/04/19 00:15:31;;;;;;;1.98;1.17;;;15.00;45.60;;;;;;5113351;28;20535;-62
2022/04/19 00:17:59;;;;;;;1.88;1.20;;;15.00;45.60;;;;;;5113466;28;20031;-66
2022/04/19 00:20:25;;;;;;;1.45;1.00;;;15.00;45.70;;;;;;5113598;28;20069;-66
2022/04/19 00:22:52;;;;;;;1.48;0.98;;;15.00;45.70;;;;;;5113104;28;20044;-66
2022/04/19 00:25:18;;;;;;;2.10;1.42;;;14.90;45.70;;;;;;5113525;28;20039;-68
2022/04/19 00:27:44;;;;;;;1.55;1.35;;;14.90;45.70;;;;;;5113021;28;20043;-66
2022/04/19 00:30:11;;;;;;;1.80;1.35;;;14.90;45.70;;;;;;5113102;28;20410;-65
2022/04/19 00:32:37;;;;;;;1.75;1.30;;;14.90;45.70;;;;;;5096182;28;20047;-66
2022/04/19 00:35:05;;;;;;;2.10;1.30;;;14.90;46.50;;;;;;5096290;28;20043;-62
2022/04/19 00:37:33;;;;;;;2.08;1.55;;;14.90;45.80;;;;;;5112887;28;20044;-66
2022/04/19 00:40:03;;;;;;;3.17;1.58;;;14.90;45.80;;;;;;5114599;28;20048;-66
2022/04/19 00:42:29;;;;;;;1.92;1.35;;;14.90;45.80;;;;;;5113107;28;20119;-66
2022/04/19 00:44:56;;;;;;;1.40;1.20;;;14.90;45.80;;;;;;5113076;28;20043;-66
2022/04/19 00:47:22;;;;;;;2.47;1.83;;;14.80;45.80;;;;;;5114203;28;20391;-66
2022/04/19 00:49:48;;;;;;;2.17;1.30;;;14.80;45.90;;;;;;5112719;28;20076;-66
2022/04/19 00:52:15;;;;;;;2.55;1.35;;;14.80;45.90;;;;;;5111623;28;20402;-66
2022/04/19 00:54:41;;;;;;;1.42;1.10;;;14.80;45.90;;;;;;5112699;28;20207;-67
2022/04/19 00:57:07;;;;;;;2.83;1.20;;;14.80;45.90;;;;;;5113766;28;20364;-66
2022/04/19 00:59:33;;;;;;;1.77;1.25;;;14.80;45.90;;;;;;5112394;28;20093;-64
2022/04/19 01:02:00;;;;;;;1.65;1.13;;;14.80;46.00;;;;;;5112506;28;20067;-66
2022/04/19 01:04:26;;;;;;;1.30;0.85;;;14.80;46.00;;;;;;5112637;28;20118;-68
2022/04/19 01:06:52;;;;;;;1.50;1.02;;;14.70;46.00;;;;;;5112371;28;20562;-64
2022/04/19 01:09:20;;;;;;;3.20;1.13;;;14.70;46.00;;;;;;5112228;28;20119;-63
2022/04/19 01:14:35;;;;;;;2.05;1.23;;;14.70;46.10;;;;;;5113266;28;20106;-66
2022/04/19 01:17:02;;;;;;;2.40;1.38;;;14.70;46.10;;;;;;5112332;28;20040;-63
2022/04/19 01:19:27;;;;;;;1.80;0.98;;;14.70;46.20;;;;;;5113287;28;20065;-66
2022/04/19 01:21:54;;;;;;;0.95;0.60;;;14.80;46.20;;;;;;5112118;28;20513;-68
2022/04/19 01:24:22;;;;;;;2.38;1.23;;;14.90;46.10;;;;;;5112165;28;20039;-63
2022/04/19 01:26:49;;;;;;;1.77;0.88;;;15.00;45.90;;;;;;5112120;28;20114;-64
2022/04/19 01:29:15;;;;;;;1.85;0.88;;;15.20;45.60;;;;;;5111489;28;20100;-66
2022/04/19 01:31:43;;;;;;;2.35;0.70;;;15.50;45.20;;;;;;5113077;28;20108;-66
2022/04/19 01:34:09;;;;;;;2.20;0.88;;;15.80;44.70;;;;;;5111800;28;20039;-63
2022/04/19 01:36:37;;;;;;;1.52;0.70;;;16.20;44.20;;;;;;5111828;28;20077;-66
2022/04/19 01:39:06;;;;;;;1.80;0.95;;;16.50;43.50;;;;;;5111949;28;20381;-64
2022/04/19 01:41:31;;;;;;;1.48;0.80;;;16.90;42.90;;;;;;5111890;28;20047;-66
2022/04/19 01:43:59;;;;;;;1.10;0.75;;;17.20;42.40;;;;;;5111848;28;20045;-66
2022/04/19 01:46:26;;;;;;;1.60;0.90;;;17.50;41.80;;;;;;5113192;28;20038;-66
2022/04/19 01:48:54;;;;;;;1.20;0.68;;;17.80;41.40;;;;;;5112912;28;20075;-66
2022/04/19 01:51:21;;;;;;;1.05;0.70;;;18.00;41.00;;;;;;5111913;28;20035;-66
2022/04/19 01:53:49;;;;;;;1.42;0.75;;;18.30;40.60;;;;;;5113259;28;20066;-66
2022/04/19 01:56:15;;;;;;;1.50;0.70;;;18.50;40.30;;;;;;5111569;28;20479;-67
2022/04/19 01:58:40;;;;;;;1.27;0.77;;;18.70;39.90;;;;;;5112743;28;20050;-68
2022/04/19 02:01:06;;;;;;;1.80;1.13;;;18.90;39.70;;;;;;5112779;28;20127;-67
2022/04/19 02:03:34;;;;;;;1.50;0.82;;;19.00;39.30;;;;;;5112643;28;20031;-66
2022/04/19 02:06:01;;;;;;;2.35;0.77;;;19.10;39.10;;;;;;5111250;28;20035;-66
2022/04/19 02:08:29;;;;;;;1.27;0.65;;;19.30;38.90;;;;;;5111200;28;20047;-64
2022/04/19 02:10:54;;;;;;;1.55;0.60;;;19.40;38.70;;;;;;5112372;28;20039;-66
2022/04/19 02:13:20;;;;;;;1.17;0.80;;;19.50;38.50;;;;;;5111542;28;20603;-67
2022/04/19 02:15:46;;;;;;;1.50;0.75;;;19.60;38.30;;;;;;5112364;28;20114;-66
2022/04/19 02:18:15;;;;;;;1.10;0.57;;;19.60;38.20;;;;;;5111497;28;20400;-67
2022/04/19 02:20:43;;;;;;;1.42;0.70;;;19.70;38.00;;;;;;5112463;28;20062;-64
2022/04/19 02:23:09;;;;;;;1.08;0.60;;;19.80;37.90;;;;;;5112913;28;20063;-62
2022/04/19 02:25:35;;;;;;;1.27;0.65;;;19.80;37.80;;;;;;5110974;28;20124;-66
2022/04/19 02:28:00;;;;;;;1.05;0.50;;;19.90;37.70;;;;;;5111927;28;20069;-66
2022/04/19 02:30:26;;;;;;;1.17;0.55;;;19.90;37.60;;;;;;5112060;28;20503;-67
2022/04/19 02:32:57;;;;;;;1.20;0.60;;;20.00;37.50;;;;;;5112261;28;20538;-67
2022/04/19 02:35:23;;;;;;;1.88;0.70;;;20.00;38.10;;;;;;5112222;28;20089;-63
2022/04/19 02:37:51;;;;;;;0.75;0.40;;;20.00;37.30;;;;;;5111279;28;20035;-67
2022/04/19 02:40:19;;;;;;;1.52;0.70;;;20.00;37.30;;;;;;5111139;28;20048;-68
2022/04/19 02:42:46;;;;;;;1.33;0.60;;;20.00;37.10;;;;;;5110919;28;20540;-66
2022/04/19 02:45:12;;;;;;;0.80;0.47;;;20.00;37.10;;;;;;5110881;28;20043;-66
2022/04/19 02:47:38;;;;;;;1.30;0.65;;;20.00;37.10;;;;;;5110787;28;20487;-63
2022/04/19 02:50:05;;;;;;;1.55;0.80;;;20.00;37.10;;;;;;5111138;28;20082;-67
2022/04/19 02:52:31;;;;;;;0.88;0.50;;;20.00;37.10;;;;;;5111168;28;20444;-64
2022/04/19 02:54:56;;;;;;;1.30;0.85;;;20.00;37.00;;;;;;5111944;28;20114;-66
2022/04/19 02:57:22;;;;;;;1.05;0.63;;;20.00;37.00;;;;;;5111584;28;20067;-65
2022/04/19 02:59:48;;;;;;;1.38;0.50;;;20.00;37.10;;;;;;5110791;28;20156;-66
2022/04/19 03:02:14;;;;;;;1.05;0.55;;;19.90;36.90;;;;;;5110677;28;20044;-60
2022/04/19 03:04:40;;;;;;;0.90;0.60;;;19.90;37.00;;;;;;5111030;28;20048;-63
2022/04/19 03:07:06;;;;;;;2.03;0.60;;;19.90;36.90;;;;;;5110664;28;20043;-64
2022/04/19 03:09:32;;;;;;;1.58;0.75;;;19.90;36.90;;;;;;5110751;28;20043;-64
2022/04/19 03:11:58;;;;;;;0.63;0.40;;;19.90;36.90;;;;;;5112941;28;20047;-66
2022/04/19 03:14:25;;;;;;;0.93;0.43;;;19.90;36.90;;;;;;5112509;28;20039;-64
2022/04/19 03:16:51;;;;;;;1.45;0.75;;;19.90;36.90;;;;;;5115324;28;20429;-66
2022/04/19 03:19:17;;;;;;;1.10;0.60;;;19.90;36.80;;;;;;5114597;28;20122;-64
2022/04/19 03:21:43;;;;;;;1.45;0.63;;;19.90;36.80;;;;;;5115059;28;20164;-66
2022/04/19 03:29:42;;;;;;;1.80;0.68;;;19.90;36.70;;;;;;5115150;28;20062;-62
2022/04/19 03:32:09;;;;;;;1.55;0.70;;;19.90;36.70;;;;;;5115474;28;20028;-64
2022/04/19 03:34:35;;;;;;;2.63;0.90;;;19.90;36.70;;;;;;5115886;28;20092;-66
2022/04/19 03:37:01;;;;;;;2.45;0.75;;;19.90;36.60;;;;;;5114090;28;20036;-62
2022/04/19 03:39:26;;;;;;;1.20;0.70;;;20.00;36.60;;;;;;5114041;28;20122;-64
2022/04/19 03:41:52;;;;;;;1.00;0.50;;;20.00;36.60;;;;;;5114086;28;20047;-65
2022/04/19 03:44:18;;;;;;;1.27;0.80;;;20.00;36.60;;;;;;5114198;28;20146;-64
2022/04/19 03:47:15;;;;;;;1.52;0.50;;;20.00;37.30;;;;;;5113953;28;20047;-65
2022/04/19 03:49:29;;;;;;;1.00;0.60;;;20.00;36.50;;;;;;5114876;28;20502;-64
2022/04/19 03:51:54;;;;;;;1.17;0.60;;;20.00;36.50;;;;;;5113929;28;20035;-64
2022/04/19 03:54:20;;;;;;;1.30;0.63;;;20.00;36.50;;;;;;5113777;28;20108;-64
2022/04/19 03:56:46;;;;;;;1.13;0.52;;;19.90;36.50;;;;;;5115007;28;20035;-65
2022/04/19 03:59:11;;;;;;;1.45;0.77;;;19.90;36.50;;;;;;5113913;28;20373;-67
2022/04/19 04:01:38;;;;;;;1.17;0.70;;;19.90;36.60;;;;;;5113643;28;20043;-61
2022/04/19 04:04:04;;;;;;;0.95;0.60;;;19.80;36.60;;;;;;5114834;28;20040;-63
2022/04/19 04:06:30;;;;;;;1.05;0.50;;;19.80;36.60;;;;;;5113807;28;20043;-60
2022/04/19 04:08:56;;;;;;;1.65;0.57;;;19.80;36.70;;;;;;5113354;28;20047;-65
2022/04/19 04:11:22;;;;;;;2.33;0.60;;;19.80;36.70;;;;;;5113535;28;20042;-65
2022/04/19 04:13:47;;;;;;;1.15;0.60;;;19.80;36.70;;;;;;5114705;28;20118;-62
2022/04/19 04:16:13;;;;;;;1.52;0.77;;;19.80;36.60;;;;;;5114773;28;20427;-66
2022/04/19 04:18:39;;;;;;;1.38;0.80;;;19.90;36.60;;;;;;5114816;28;20039;-64
2022/04/19 04:21:05;;;;;;;1.80;0.63;;;19.90;36.50;;;;;;5113515;28;20039;-64
2022/04/19 04:23:33;;;;;;;1.20;0.60;;;20.00;36.40;;;;;;5112883;28;20096;-64
2022/04/19 04:25:59;;;;;;;1.17;0.75;;;20.00;36.30;;;;;;5113173;28;20039;-61
2022/04/19 04:28:25;;;;;;;1.40;0.60;;;20.10;36.20;;;;;;5113129;28;20086;-65
2022/04/19 04:30:51;;;;;;;1.10;0.95;;;20.10;36.10;;;;;;5114455;28;20216;-64
2022/04/19 04:33:17;;;;;;;1.35;0.82;;;20.20;36.10;;;;;;5113406;28;20122;-61
2022/04/19 04:35:42;;;;;;;1.38;0.95;;;20.20;36.00;;;;;;5113185;28;20035;-64
2022/04/19 04:38:08;;;;;;;1.70;0.95;;;20.20;36.00;;;;;;5114499;28;20401;-65
2022/04/19 04:40:34;;;;;;;1.75;0.63;;;20.20;35.90;;;;;;5113114;28;20545;-65
2022/04/19 04:42:59;;;;;;;2.97;1.10;;;20.20;35.90;;;;;;5112846;28;20487;-64
2022/04/19 04:45:26;;;;;;;1.45;1.15;;;20.10;35.90;;;;;;5114036;28;20036;-64
2022/04/19 04:50:38;;;;;;;1.67;0.95;;;20.10;35.90;;;;;;5112662;28;20044;-64
2022/04/19 04:53:03;;;;;;;2.25;0.90;;;20.00;36.00;;;;;;5112673;28;20602;-64
2022/04/19 04:55:29;;;;;;;1.05;0.77;;;20.00;36.80;;;;;;5113833;28;20043;-65
2022/04/19 04:57:58;;;;;;;1.80;0.90;;;19.90;36.00;;;;;;5112565;28;20391;-65
2022/04/19 05:00:25;;;;;;;1.75;1.00;;;19.90;36.20;;;;;;5113787;28;20498;-62
2022/04/19 05:02:51;;;;;;;1.50;0.93;;;19.80;36.20;;;;;;5112750;28;20031;-65
2022/04/19 05:05:17;;;;;;;1.30;0.90;;;19.80;36.20;;;;;;5113605;28;20031;-65
2022/04/19 05:07:43;;;;;;;1.60;1.02;;;19.70;36.20;;;;;;5112310;28;20031;-62
2022/04/19 05:10:09;;;;;;;1.80;1.00;;;19.70;36.30;;;;;;5113651;28;20039;-62
2022/04/19 05:12:35;;;;;;;2.08;0.95;;;19.70;36.30;;;;;;5112283;28;20039;-65
2022/04/19 05:15:01;;;;;;;1.80;1.00;;;19.60;36.30;;;;;;5113590;28;20074;-64
2022/04/19 05:17:27;;;;;;;1.98;1.10;;;19.60;36.30;;;;;;5113377;28;20082;-66
2022/04/19 05:19:54;;;;;;;2.28;1.20;;;19.60;36.30;;;;;;5112053;28;20479;-60
2022/04/19 05:22:20;;;;;;;1.95;1.05;;;19.60;37.00;;;;;;5090235;28;20479;-65
2022/04/19 05:24:46;;;;;;;2.03;1.00;;;19.70;36.30;;;;;;5108884;28;20183;-68
2022/04/19 05:27:12;;;;;;;2.17;1.02;;;19.70;36.60;;;;;;5110227;28;20484;-66
2022/04/19 05:29:37;;;;;;;3.40;1.80;;;19.70;36.60;;;;;;5127691;27;20054;-61
2022/04/19 05:32:04;;;;;;;3.53;2.40;;;19.70;37.00;;;;;;5110974;28;20056;-61
2022/04/19 05:34:30;;;;;;;4.55;2.28;;;19.70;37.20;;;;;;5103087;28;20044;-66
2022/04/19 05:36:58;;;;;;;2.90;2.35;;;19.80;38.10;;;;;;5108366;28;20046;-67
2022/04/19 05:39:27;;;;;;;8.63;2.92;;;19.80;37.40;;;;;;5105927;28;20035;-68
2022/04/19 05:41:55;;;;;;;5.22;3.00;;;19.80;37.50;;;;;;5108596;28;20039;-68
2022/04/19 05:44:24;;;;;;;6.18;3.42;;;19.80;37.50;;;;;;5108836;28;20043;-63
2022/04/19 05:46:51;;;;;;;6.60;3.25;;;19.80;37.60;;;;;;5118562;27;20078;-69
2022/04/19 05:49:16;;;;;;;4.93;2.30;;;19.80;37.70;;;;;;5106961;28;20050;-67
2022/04/19 05:51:42;;;;;;;4.40;3.08;;;19.80;37.80;;;;;;5108043;28;20111;-69
2022/04/19 05:54:08;;;;;;;3.38;2.47;;;19.80;37.80;;;;;;5107069;28;20088;-69
2022/04/19 05:56:33;;;;;;;4.82;2.47;;;19.80;37.90;;;;;;5110280;28;20123;-64
2022/04/19 05:58:59;;;;;;;4.30;2.10;;;19.70;37.80;;;;;;5107086;28;20066;-67
2022/04/19 06:01:24;;;;;;;3.85;3.08;;;19.70;37.80;;;;;;5104995;28;20088;-69
2022/04/19 06:06:37;;;;;;;4.20;2.13;;;19.70;38.00;;;;;;5110407;28;20051;-70
2022/04/19 06:09:03;;;;;;;3.88;1.77;;;19.60;37.90;;;;;;5100911;28;20051;-70
2022/04/19 06:11:28;;;;;;;4.20;2.72;;;19.60;38.00;;;;;;5106146;28;20031;-69
2022/04/19 06:13:54;;;;;;;5.03;2.17;;;19.60;38.00;;;;;;5105128;28;20067;-71
2022/04/19 06:16:19;;;;;;;3.08;1.95;;;19.60;38.10;;;;;;5101231;28;20172;-70
2022/04/19 06:18:45;;;;;;;4.03;2.47;;;19.50;38.20;;;;;;5104483;28;20368;-69
2022/04/19 06:21:11;;;;;;;4.53;1.70;;;19.50;38.20;;;;;;5105064;28;20527;-69
2022/04/19 06:23:36;;;;;;;3.83;2.22;;;19.50;38.30;;;;;;5103440;28;20045;-69
2022/04/19 06:26:03;;;;;;;5.82;1.70;;;19.40;38.30;;;;;;5107495;28;20127;-68
2022/04/19 06:28:29;;;;;;;3.55;1.63;;;19.40;38.40;;;;;;5096597;28;20160;-64
2022/04/19 06:30:57;;;;;;;2.95;1.48;;;19.40;38.40;;;;;;5093860;28;20122;-69
2022/04/19 06:33:23;;;;;;;3.17;1.35;;;19.40;38.60;;;;;;5094280;28;20044;-63
2022/04/19 06:35:49;;;;;;;2.05;1.23;;;19.40;38.70;;;;;;5075632;28;20174;-63
2022/04/19 06:38:14;;;;;;;3.60;1.67;;;19.40;38.90;;;;;;5094703;28;20354;-69
2022/04/19 06:40:40;;;;;;;2.25;1.17;;;19.40;38.90;;;;;;5084949;28;20036;-68
2022/04/19 06:43:06;;;;;;;3.70;2.13;;;19.40;39.10;;;;;;5088287;28;20043;-70
2022/04/19 06:45:32;;;;;;;4.43;1.40;;;19.40;39.20;;;;;;5087581;28;20039;-69
2022/04/19 06:47:59;;;;;;;4.07;1.80;;;19.40;39.30;;;;;;5087210;28;20089;-62
2022/04/19 06:50:25;;;;;;;4.13;1.55;;;19.40;39.60;;;;;;5090072;27;20816;-67
2022/04/19 06:52:52;;;;;;;5.15;1.60;;;19.40;39.60;;;;;;5096412;28;20047;-63
2022/04/19 06:55:19;;;;;;;5.55;1.80;;;19.40;39.70;;;;;;5091384;28;20044;-70
2022/04/19 06:57:48;;;;;;;5.13;2.42;;;19.40;39.80;;;;;;5094912;27;20589;-69
2022/04/19 07:00:18;;;;;;;16.20;2.53;;;19.40;39.90;;;;;;5092829;27;20105;-68
2022/04/19 07:02:44;;;;;;;1.90;1.45;;;19.40;40.00;;;;;;5093905;28;20043;-68
2022/04/19 07:05:11;;;;;;;3.55;1.98;;;19.40;40.00;;;;;;5096579;28;20561;-63
2022/04/19 07:07:40;;;;;;;7.00;1.60;;;19.40;40.20;;;;;;5108865;27;20631;-69
2022/04/19 07:10:07;;;;;;;6.25;1.77;;;19.40;40.40;;;;;;5086816;27;20044;-64
2022/04/19 07:12:32;;;;;;;7.95;1.75;;;19.40;40.70;;;;;;5091082;27;20370;-67
2022/04/19 07:14:58;;;;;;;2.28;1.30;;;19.40;40.70;;;;;;5092122;28;20028;-68
2022/04/19 07:17:26;;;;;;;2.83;1.70;;;19.40;40.80;;;;;;5093734;27;20036;-63
2022/04/19 07:28:15;;;;;;;4.38;0.98;;;19.40;41.60;;;;;;5094604;28;20538;-65
2022/04/19 07:30:40;;;;;;;4.22;0.90;;;19.40;41.90;;;;;;5092453;28;20088;-67
2022/04/19 07:33:09;;;;;;;4.78;1.10;;;19.40;41.90;;;;;;5090550;27;20035;-67
2022/04/19 07:35:35;;;;;;;4.18;0.80;;;19.40;42.10;;;;;;5087105;28;20035;-68
2022/04/19 07:38:02;;;;;;;9.52;1.90;;;19.40;42.20;;;;;;5088996;27;20042;-64
2022/04/19 07:40:31;;;;;;;7.50;1.55;;;19.40;42.50;;;;;;5102968;27;20040;-70
2022/04/19 07:42:56;;;;;;;7.75;2.00;;;19.40;42.80;;;;;;5090133;28;20040;-65
2022/04/19 07:45:22;;;;;;;12.52;1.77;;;19.40;42.90;;;;;;5087190;28;20066;-68
2022/04/19 07:47:48;;;;;;;6.55;1.40;;;19.30;43.00;;;;;;5091909;28;20175;-69
2022/04/19 07:50:13;;;;;;;6.28;1.40;;;19.30;43.10;;;;;;5091879;28;20127;-70
2022/04/19 07:52:39;;;;;;;5.15;0.90;;;19.30;43.00;;;;;;5083288;27;20526;-69
2022/04/19 07:55:05;;;;;;;4.57;1.05;;;19.30;43.10;;;;;;5105481;27;20032;-68
2022/04/19 07:57:31;;;;;;;6.93;1.55;;;19.30;43.00;;;;;;5087272;28;20089;-69
2022/04/19 07:59:56;;;;;;;11.13;1.40;;;19.30;43.00;;;;;;5083126;28;20035;-68
2022/04/19 08:02:22;;;;;;;6.53;1.10;;;19.30;43.10;;;;;;5087218;28;20051;-68
2022/04/19 08:04:48;;;;;;;5.38;1.48;;;19.20;43.10;;;;;;5088365;27;20039;-67
2022/04/19 08:07:14;;;;;;;3.67;0.93;;;19.20;43.10;;;;;;5088253;28;20043;-69
2022/04/19 08:09:43;;;;;;;6.03;1.65;;;19.20;43.20;;;;;;5089839;28;20047;-68
2022/04/19 08:12:08;;;;;;;5.20;1.42;;;19.10;43.10;;;;;;5093156;28;20370;-68
2022/04/19 08:14:34;;;;;;;3.78;1.42;;;19.10;43.10;;;;;;5086864;28;20489;-69
2022/04/19 08:17:00;;;;;;;3.35;1.10;;;19.00;43.00;;;;;;5105888;27;20047;-68
2022/04/19 08:19:26;;;;;;;5.97;1.20;;;19.00;43.10;;;;;;5110161;27;20036;-68
2022/04/19 08:21:52;;;;;;;2.22;1.25;;;19.00;43.20;;;;;;5091349;28;20036;-65
2022/04/19 08:24:18;;;;;;;3.80;1.05;;;19.00;43.30;;;;;;5087238;28;20063;-68
2022/04/19 08:26:44;;;;;;;3.95;1.33;;;19.00;43.60;;;;;;5108119;27;20035;-69
2022/04/19 08:29:11;;;;;;;4.30;1.13;;;19.00;43.70;;;;;;5089240;28;20059;-70
2022/04/19 08:31:37;;;;;;;2.28;1.00;;;18.90;43.80;;;;;;5088325;27;20040;-68
2022/04/19 08:34:03;;;;;;;4.05;1.23;;;18.90;43.80;;;;;;5088723;27;20257;-69
2022/04/19 08:36:29;;;;;;;4.50;1.15;;;18.90;43.80;;;;;;5088641;27;20804;-65
2022/04/19 08:38:55;;;;;;;3.17;1.50;;;18.90;43.60;;;;;;5088755;28;20130;-69
2022/04/19 08:41:21;;;;;;;2.15;1.17;;;18.90;43.50;;;;;;5087389;28;20040;-66
2022/04/19 08:43:47;;;;;;;5.57;0.80;;;18.90;43.50;;;;;;5085845;28;20043;-68
2022/04/19 08:46:14;;;;;;;3.33;1.00;;;18.90;43.50;;;;;;5090493;28;20054;-66
2022/04/19 08:48:41;;;;;;;2.28;0.82;;;18.90;43.50;;;;;;5084280;27;20447;-70
2022/04/19 08:51:10;;;;;;;4.50;0.88;;;18.90;43.50;;;;;;5089056;28;20039;-66
2022/04/19 08:59:10;;;;;;;3.55;1.52;;;18.90;43.30;;;;;;5087044;28;20044;-69
2022/04/19 09:01:35;;;;;;;2.22;0.95;;;18.90;43.10;;;;;;5092216;27;20036;-69
2022/04/19 09:04:04;;;;;;;3.95;1.17;;;19.00;43.20;;;;;;5085892;27;20395;-69
2022/04/19 09:06:54;;;;;;;3.10;0.98;;;19.00;43.10;;;;;;5091656;27;20093;-68
2022/04/19 09:09:23;;;;;;;2.60;1.30;;;19.10;43.40;;;;;;5092156;28;20046;-70
2022/04/19 09:11:49;;;;;;;2.05;0.88;;;19.20;43.10;;;;;;5075115;27;20044;-66
2022/04/19 09:14:15;;;;;;;4.53;1.48;;;19.20;43.00;;;;;;5081727;28;20576;-69
2022/04/19 09:17:00;;;;;;;1.65;0.90;;;19.30;42.90;;;;;;5085188;27;20040;-69
2022/04/19 09:19:28;;;;;;;4.30;1.40;;;19.30;42.80;;;;;;5085301;28;20308;-64
2022/04/19 09:21:54;;;;;;;2.92;0.88;;;19.40;42.70;;;;;;5090420;28;20050;-69
2022/04/19 09:24:21;;;;;;;4.65;1.10;;;19.50;42.50;;;;;;5087521;28;20701;-69
2022/04/19 09:26:48;;;;;;;2.95;0.90;;;19.50;42.40;;;;;;5091303;28;20050;-68
2022/04/19 09:31:58;;;;;;;2.75;0.70;;;19.50;42.40;;;;;;5114696;27;20563;-66
2022/04/19 09:34:33;;;;;;;4.57;1.23;;;19.70;42.20;;;;;;5092757;28;20591;-66
2022/04/19 09:37:11;;;;;;;3.40;1.02;;;19.80;42.10;;;;;;5094661;28;20133;-66
2022/04/19 09:39:39;;;;;;;5.18;0.82;;;20.00;42.00;;;;;;5096276;28;20063;-66
2022/04/19 09:42:08;;;;;;;2.53;0.98;;;20.20;41.50;;;;;;5087837;28;20871;-62
2022/04/19 09:44:40;;;;;;;7.63;0.68;;;20.30;41.00;;;;;;5090762;28;20035;-64
2022/04/19 09:47:08;;;;;;;4.97;0.80;;;20.50;40.80;;;;;;5093968;28;20036;-67
2022/04/19 09:57:41;;;;;;;9.95;0.63;;;20.50;40.70;;;;;;5109908;27;20135;-62
2022/04/19 10:00:09;;;;;;;8.25;1.10;;;20.70;40.30;;;;;;5095561;28;20055;-68
2022/04/19 10:08:10;;;;;;;4.13;0.40;;;20.80;40.30;;;;;;5082088;28;20553;-67
2022/04/19 10:10:37;;;;;;;7.28;0.60;;;20.80;40.30;;;;;;5096763;28;20033;-64
2022/04/19 10:13:03;;;;;;;5.10;0.47;;;20.90;40.10;;;;;;5098216;28;20047;-68
2022/04/19 10:15:33;;;;;;;2.35;0.47;;;20.90;40.00;;;;;;5095179;28;20435;-68
2022/04/19 10:17:59;;;;;;;2.75;0.20;;;20.90;39.40;;;;;;5097418;28;20178;-68
2022/04/19 10:20:35;;;;;;;5.70;0.22;;;20.90;39.50;;;;;;5091675;28;20036;-63
2022/04/19 10:23:03;;;;;;;3.53;0.20;;;20.90;39.60;;;;;;5088804;28;20081;-69
2022/04/19 10:25:46;;;;;;;2.78;0.20;;;20.90;39.60;;;;;;5094008;28;20125;-69
2022/04/19 10:28:15;;;;;;;2.17;0.57;;;20.80;39.60;;;;;;5097386;28;20035;-69
2022/04/19 10:30:51;;;;;;;5.32;0.50;;;20.80;39.50;;;;;;5098569;28;20035;-68
2022/04/19 10:44:49;;;;;;;3.22;0.30;;;20.70;38.10;;;;;;5126141;27;20504;-63
2022/04/19 10:47:18;;;;;;;3.25;0.38;;;20.60;38.40;;;;;;5092889;28;20071;-67
2022/04/19 10:50:04;;;;;;;2.17;0.40;;;20.60;38.10;;;;;;5089879;28;20040;-68
2022/04/19 11:00:57;;;;;;;0.70;0.20;;;20.50;37.10;;;;;;5096570;27;20210;-67
2022/04/19 11:06:08;;;;;;;1.35;0.20;;;20.40;37.20;;;;;;5123063;27;20477;-70
2022/04/19 11:08:37;;;;;;;2.70;0.22;;;20.40;37.30;;;;;;5100592;27;20395;-67
2022/04/19 11:13:42;;;;;;;2.45;0.30;;;20.30;37.50;;;;;;5101941;27;20131;-69
2022/04/19 11:16:12;;;;;;;1.27;0.20;;;20.20;37.40;;;;;;5088790;28;20309;-64
2022/04/19 11:21:16;;;;;;;1.77;0.20;;;20.20;37.50;;;;;;5104974;27;20136;-69
2022/04/19 11:26:40;;;;;;;2.88;0.40;;;20.10;37.50;;;;;;5103959;27;20129;-67
2022/04/19 11:34:32;;;;;;;4.00;1.17;;;20.10;37.20;;;;;;5149089;27;95095;-62
2022/04/19 11:36:59;;;;;;;1.45;0.20;;;20.00;37.50;;;;;;5135124;27;20489;-68
2022/04/19 11:47:58;;;;;;;4.57;0.20;;;20.00;37.70;;;;;;5152914;27;20449;-63
2022/04/19 11:50:27;;;;;;;0.57;0.20;;;20.00;38.00;;;;;;5153371;27;21234;-62
2022/04/19 11:52:53;;;;;;;5.10;0.32;;;20.00;38.20;;;;;;5138083;27;20042;-69
2022/04/19 11:55:23;;;;;;;5.65;0.35;;;20.00;38.20;;;;;;5138782;27;20034;-68
2022/04/19 11:58:00;;;;;;;;;;;20.00;38.10;;;;;;5138128;27;20054;-68
2022/04/19 12:00:26;;;;;;;2.15;0.15;;;20.00;37.80;;;;;;5134717;27;19919;-67
2022/04/19 12:02:52;;;;;;;4.18;0.40;;;20.00;38.10;;;;;;5135515;27;20045;-67
2022/04/19 12:05:26;;;;;;;3.92;0.40;;;20.00;38.30;;;;;;5136009;27;20045;-63
2022/04/19 12:07:55;;;;;;;1.85;0.20;;;20.00;38.40;;;;;;5134082;27;20047;-66
2022/04/19 12:10:21;;;;;;;2.60;0.15;;;20.00;38.40;;;;;;5136928;27;20086;-65
2022/04/19 12:12:49;;;;;;;1.70;0.20;;;20.00;38.50;;;;;;5133648;27;20027;-68
2022/04/19 12:15:41;;;;;;;1.20;0.20;;;20.00;38.60;;;;;;5133216;27;20043;-67
2022/04/19 12:18:07;;;;;;;1.75;0.32;;;20.00;38.40;;;;;;5130698;27;20101;-68
2022/04/19 12:20:42;;;;;;;0.75;0.20;;;20.10;38.50;;;;;;5129186;27;20043;-66
2022/04/19 12:23:17;;;;;;;4.65;0.20;;;20.10;38.10;;;;;;5135464;27;20048;-65
2022/04/19 12:25:56;;;;;;;13.10;1.23;;;20.20;38.20;;;;;;5134991;27;20402;-67
2022/04/19 12:28:21;;;;;;;3.70;0.20;;;20.20;38.50;;;;;;5133214;27;20038;-62
2022/04/19 12:30:47;;;;;;;5.63;0.40;;;20.20;38.70;;;;;;5130536;27;20053;-69
2022/04/19 12:33:14;;;;;;;14.45;0.50;;;20.30;38.90;;;;;;5126158;27;20327;-70
2022/04/19 12:35:40;;;;;;;3.97;0.30;;;20.30;38.80;;;;;;5129667;27;20039;-69
2022/04/19 12:40:46;;;;;;;9.43;0.57;;;20.40;39.10;;;;;;5114377;27;20557;-72
2022/04/19 12:43:15;;;;;;;5.38;0.20;;;20.50;39.30;;;;;;5080560;28;20047;-72
2022/04/19 12:45:41;;;;;;;3.03;0.40;;;20.50;39.30;;;;;;5114982;27;20048;-68
2022/04/19 12:48:18;;;;;;;5.07;0.40;;;20.60;39.20;;;;;;5114140;27;20570;-67
2022/04/19 12:50:43;;;;;;;6.75;0.60;;;20.50;39.20;;;;;;5113218;27;20050;-67
2022/04/19 12:53:24;;;;;;;6.28;0.20;;;20.50;39.20;;;;;;5116394;27;20056;-68
2022/04/19 12:55:50;;;;;;;5.70;0.30;;;20.50;39.20;;;;;;5082840;28;20039;-63
2022/04/19 12:58:16;;;;;;;2.65;0.30;;;20.60;39.20;;;;;;5084900;28;20043;-67
2022/04/19 13:00:41;;;;;;;1.00;0.20;;;20.60;39.10;;;;;;5086870;28;20051;-67
2022/04/19 13:03:07;;;;;;;3.20;0.20;;;20.60;39.00;;;;;;5085123;28;20031;-69
2022/04/19 13:13:52;;;;;;;2.50;0.20;;;20.60;38.60;;;;;;5092837;28;20400;-70
2022/04/19 13:16:18;;;;;;;3.20;0.25;;;20.60;38.50;;;;;;5122022;27;20029;-70
2022/04/19 13:18:44;;;;;;;1.40;0.30;;;20.60;38.40;;;;;;5089312;28;20044;-70
2022/04/19 13:21:09;;;;;;;1.73;0.10;;;20.60;38.30;;;;;;5095944;28;20032;-71
2022/04/19 13:23:35;;;;;;;0.52;0.22;;;20.60;38.20;;;;;;5085921;28;20036;-72
2022/04/19 13:26:00;;;;;;;1.77;0.40;;;20.60;38.20;;;;;;5125215;27;20443;-66
2022/04/19 13:28:26;;;;;;;2.25;0.20;;;20.60;38.10;;;;;;5091736;28;20064;-71
2022/04/19 13:30:53;;;;;;;1.23;0.22;;;20.60;38.00;;;;;;5121267;27;20080;-66
2022/04/19 13:33:18;;;;;;;3.83;0.30;;;20.60;38.00;;;;;;5117421;27;20088;-66
2022/04/19 13:35:44;;;;;;;1.58;0.30;;;20.60;37.90;;;;;;5092582;28;20051;-62
2022/04/19 13:38:25;;;;;;;3.22;0.60;;;20.60;37.50;;;;;;5123116;27;20036;-66
2022/04/19 13:40:52;;;;;;;0.73;0.20;;;20.70;37.50;;;;;;5098500;28;20060;-71
2022/04/19 13:43:18;;;;;;;3.75;0.20;;;20.70;37.50;;;;;;5090807;28;20425;-69
2022/04/19 13:45:46;;;;;;;3.90;0.20;;;20.70;37.60;;;;;;5090974;28;20036;-71
2022/04/19 13:48:12;;;;;;;0.95;0.20;;;20.80;37.70;;;;;;5089174;28;20047;-70
2022/04/19 13:50:38;;;;;;;2.05;0.20;;;20.80;37.70;;;;;;5083699;28;20071;-71
2022/04/19 13:53:03;;;;;;;0.70;0.20;;;20.80;37.70;;;;;;5103429;27;20082;-71
2022/04/19 13:55:29;;;;;;;3.70;0.20;;;20.80;37.60;;;;;;5075802;28;20081;-71
2022/04/19 13:57:56;;;;;;;0.30;0.10;;;20.90;37.80;;;;;;5104504;27;20032;-70
2022/04/19 14:00:24;;;;;;;1.38;0.28;;;20.90;37.90;;;;;;5086072;28;20040;-70
2022/04/19 14:02:52;;;;;;;0.50;0.20;;;20.90;38.00;;;;;;5112274;27;20048;-69
2022/04/19 14:05:18;;;;;;;1.05;0.20;;;20.90;38.00;;;;;;5088547;28;20036;-69
2022/04/19 14:07:43;;;;;;;0.70;0.20;;;20.90;37.90;;;;;;5114693;27;20040;-69
2022/04/19 14:10:12;;;;;;;1.70;0.20;;;21.00;37.50;;;;;;5090701;28;20069;-69
2022/04/19 14:12:38;;;;;;;1.27;0.20;;;21.00;37.40;;;;;;5095991;28;20035;-71
2022/04/19 14:15:05;;;;;;;1.63;0.20;;;21.00;37.50;;;;;;5087856;28;20043;-70
2022/04/19 14:17:31;;;;;;;1.65;0.20;;;21.00;37.40;;;;;;5089468;28;20032;-69
2022/04/19 14:19:57;;;;;;;1.13;0.20;;;21.00;37.50;;;;;;5089142;28;20437;-69
2022/04/19 14:22:24;;;;;;;0.63;0.10;;;21.00;37.50;;;;;;5090556;28;20036;-69
2022/04/19 14:24:50;;;;;;;2.20;0.20;;;21.00;37.50;;;;;;5089101;28;20483;-69
2022/04/19 14:27:16;;;;;;;3.90;0.20;;;21.10;37.60;;;;;;5088068;28;20043;-66